createdAt,value
2023-03-02T06:02:59.769Z,2.47
2023-03-02T06:05:32.943Z,2.45
2023-03-02T06:08:09.679Z,2.47
2023-03-02T06:10:46.693Z,2.46
2023-03-02T06:13:17.428Z,2.42
2023-03-02T06:15:54.676Z,2.45
2023-03-02T06:18:27.653Z,2.41
2023-03-02T06:21:04.650Z,2.38
2023-03-02T06:23:42.749Z,2.39
2023-03-02T06:26:15.749Z,2.37
2023-03-02T06:28:54.017Z,2.38
2023-03-02T06:31:31.707Z,2.37
2023-03-02T06:34:04.854Z,2.34
2023-03-02T06:36:45.683Z,2.36
2023-03-02T06:39:24.857Z,2.36
2023-03-02T06:41:55.169Z,2.35
2023-03-02T06:44:31.633Z,2.39
2023-03-02T06:47:02.219Z,2.41
2023-03-02T06:49:41.674Z,2.39
2023-03-02T06:52:13.715Z,2.42
2023-03-02T06:54:50.746Z,2.50
2023-03-02T06:57:27.716Z,2.56
2023-03-02T06:59:58.077Z,2.57
2023-03-02T07:02:34.716Z,2.56
2023-03-02T07:05:15.630Z,2.64
2023-03-02T07:07:46.087Z,2.69
2023-03-02T07:10:22.757Z,2.75
2023-03-02T07:12:52.870Z,2.76
2023-03-02T07:15:29.719Z,2.87
2023-03-02T07:17:59.820Z,2.93
2023-03-02T07:20:39.669Z,2.98
2023-03-02T07:23:10.357Z,3.01
2023-03-02T07:25:46.718Z,3.31
2023-03-02T07:28:17.038Z,3.88
2023-03-02T07:30:53.712Z,4.37
2023-03-02T07:33:24.451Z,4.90
2023-03-02T07:36:03.722Z,5.34
2023-03-02T07:38:40.913Z,5.63
2023-03-02T07:41:12.439Z,6.09
2023-03-02T07:43:48.822Z,6.47
2023-03-02T07:46:25.882Z,6.89
2023-03-02T07:48:56.142Z,7.01
2023-03-02T07:51:35.767Z,6.91
2023-03-02T07:54:05.933Z,7.23
2023-03-02T07:56:42.745Z,7.84
2023-03-02T07:59:13.827Z,8.09
2023-03-02T08:01:50.822Z,8.67
2023-03-02T08:04:21.043Z,9.17
2023-03-02T08:07:00.735Z,9.59
2023-03-02T08:09:30.754Z,9.98
2023-03-02T08:12:07.797Z,10.36
2023-03-02T08:14:45.275Z,10.61
2023-03-02T08:17:15.348Z,11.19
2023-03-02T08:19:51.762Z,11.63
2023-03-02T08:22:24.793Z,11.79
2023-03-02T08:25:01.825Z,12.21
2023-03-02T08:27:38.887Z,12.26
2023-03-02T08:30:13.319Z,12.71
2023-03-02T08:32:49.794Z,13.14
2023-03-02T08:35:28.908Z,13.40
2023-03-02T08:38:04.322Z,13.14
2023-03-02T08:40:41.765Z,13.29
2023-03-02T08:43:11.868Z,13.61
2023-03-02T08:45:48.968Z,13.40
2023-03-02T08:48:19.096Z,13.43
2023-03-02T08:51:04.833Z,13.21
2023-03-02T08:53:41.005Z,13.41
2023-03-02T08:56:26.855Z,13.85
2023-03-02T08:59:00.766Z,14.17
2023-03-02T09:01:39.886Z,14.29
2023-03-02T09:04:12.277Z,14.37
2023-03-02T09:06:51.874Z,14.58
2023-03-02T09:09:24.985Z,14.65
2023-03-02T09:12:01.900Z,14.69
2023-03-02T09:14:32.044Z,14.40
2023-03-02T09:17:08.892Z,14.59
2023-03-02T09:19:48.807Z,15.01
2023-03-02T09:22:18.861Z,15.12
2023-03-02T09:24:57.913Z,14.60
2023-03-02T09:27:34.938Z,14.32
2023-03-02T09:30:05.051Z,14.57
2023-03-02T09:32:42.120Z,14.72
2023-03-02T09:35:13.116Z,14.79
2023-03-02T09:37:50.002Z,15.06
2023-03-02T09:40:34.887Z,15.02
2023-03-02T09:43:31.913Z,14.88
2023-03-02T09:46:23.966Z,15.07
2023-03-02T09:49:20.529Z,14.81
2023-03-02T09:52:11.905Z,14.89
2023-03-02T09:54:43.296Z,15.25
2023-03-02T09:57:31.964Z,15.10
2023-03-02T10:00:18.710Z,14.95
2023-03-02T10:03:11.360Z,15.29
2023-03-02T10:05:54.926Z,15.18
2023-03-02T10:08:29.252Z,15.15
2023-03-02T10:11:16.953Z,15.09
2023-03-02T10:13:57.383Z,15.19
2023-03-02T10:16:43.938Z,15.00
2023-03-02T10:19:25.098Z,14.98
2023-03-02T10:22:07.982Z,14.95
2023-03-02T10:24:43.299Z,15.19
2023-03-02T10:27:26.955Z,15.07
2023-03-02T10:30:06.801Z,15.03
2023-03-02T10:32:47.925Z,15.43
2023-03-02T10:35:30.031Z,15.24
2023-03-02T10:38:11.942Z,15.62
2023-03-02T10:40:53.261Z,15.81
2023-03-02T10:43:37.071Z,16.12
2023-03-02T10:46:12.549Z,16.12
2023-03-02T10:49:00.992Z,15.91
2023-03-02T10:51:32.944Z,16.07
2023-03-02T10:54:14.078Z,15.39
2023-03-02T10:56:52.138Z,15.62
2023-03-02T10:59:52.942Z,15.42
2023-03-02T11:02:29.455Z,15.62
2023-03-02T11:05:09.032Z,15.32
2023-03-02T11:07:46.031Z,15.17
2023-03-02T11:10:23.947Z,14.95
2023-03-02T11:13:03.021Z,15.21
2023-03-02T11:15:50.068Z,15.16
2023-03-02T11:18:30.057Z,15.14
2023-03-02T11:21:11.010Z,15.25
2023-03-02T11:23:52.105Z,15.04
2023-03-02T11:26:36.256Z,14.94
2023-03-02T11:29:14.820Z,15.09
2023-03-02T11:31:58.183Z,15.07
2023-03-02T11:34:37.448Z,15.21
2023-03-02T11:37:25.147Z,15.43
2023-03-02T11:40:15.950Z,15.52
2023-03-02T11:42:55.094Z,15.67
2023-03-02T11:45:29.414Z,15.38
2023-03-02T11:48:13.120Z,15.31
2023-03-02T11:51:01.212Z,14.99
2023-03-02T11:53:49.061Z,15.06
2023-03-02T11:56:26.099Z,14.84
2023-03-02T11:59:12.168Z,15.18
2023-03-02T12:01:43.564Z,15.28
2023-03-02T12:04:39.085Z,15.43
2023-03-02T12:07:25.997Z,15.45
2023-03-02T12:10:14.051Z,15.44
2023-03-02T12:12:56.123Z,15.60
2023-03-02T12:15:38.762Z,15.03
2023-03-02T12:18:56.160Z,15.38
2023-03-02T12:21:28.148Z,15.58
2023-03-02T12:24:10.143Z,15.72
2023-03-02T12:26:47.209Z,15.48
2023-03-02T12:29:27.351Z,15.17
2023-03-02T12:32:06.339Z,14.85
2023-03-02T12:34:40.304Z,14.49
2023-03-02T12:37:27.119Z,14.37
2023-03-02T12:40:42.114Z,14.25
2023-03-02T12:43:30.216Z,13.87
2023-03-02T12:46:35.550Z,13.53
2023-03-02T12:49:43.177Z,13.61
2023-03-02T12:52:31.532Z,13.69
2023-03-02T12:55:25.151Z,13.68
2023-03-02T12:58:01.272Z,13.51
2023-03-02T13:00:41.231Z,13.46
2023-03-02T13:03:18.874Z,13.35
2023-03-02T13:05:56.184Z,13.26
2023-03-02T13:08:31.435Z,13.26
2023-03-02T13:11:12.253Z,13.07
2023-03-02T13:13:48.669Z,13.05
2023-03-02T13:16:32.458Z,12.88
2023-03-02T13:19:12.143Z,12.98
2023-03-02T13:21:43.237Z,12.98
2023-03-02T13:24:42.278Z,12.66
2023-03-02T13:27:28.239Z,12.51
2023-03-02T13:30:20.460Z,12.64
2023-03-02T13:32:51.386Z,12.42
2023-03-02T13:35:35.164Z,12.35
2023-03-02T13:38:08.866Z,12.18
2023-03-02T13:40:54.315Z,12.21
2023-03-02T13:43:41.384Z,12.23
2023-03-02T13:46:44.257Z,11.97
2023-03-02T13:49:14.503Z,12.03
2023-03-02T13:51:54.288Z,12.06
2023-03-02T13:54:28.501Z,12.13
2023-03-02T13:57:07.272Z,12.10
2023-03-02T13:59:39.116Z,12.17
